createdAt,value
2018-10-12T00:00:53.341Z,71.68
2018-10-12T00:03:22.651Z,72.00
2018-10-12T00:05:51.746Z,72.57
2018-10-12T00:08:21.236Z,72.84
2018-10-12T00:10:50.368Z,73.13
2018-10-12T00:13:19.581Z,73.73
2018-10-12T00:15:48.943Z,73.64
2018-10-12T00:18:18.119Z,73.81
2018-10-12T00:20:47.405Z,72.49
2018-10-12T00:23:16.643Z,72.03
2018-10-12T00:25:46.112Z,72.18
2018-10-12T00:28:15.348Z,71.79
2018-10-12T00:30:44.504Z,71.69
2018-10-12T00:33:13.751Z,72.01
2018-10-12T00:35:42.843Z,72.31
2018-10-12T00:38:12.144Z,71.54
2018-10-12T00:40:41.355Z,71.23
2018-10-12T00:43:10.388Z,71.14
2018-10-12T00:45:39.735Z,70.79
2018-10-12T00:48:08.991Z,70.59
2018-10-12T00:50:38.475Z,71.07
2018-10-12T00:53:07.691Z,70.17
2018-10-12T00:55:36.654Z,70.17
2018-10-12T00:58:05.460Z,70.27
2018-10-12T01:00:34.461Z,70.33
2018-10-12T01:03:03.712Z,71.35
2018-10-12T01:05:32.691Z,71.34
2018-10-12T01:08:02.100Z,69.99
2018-10-12T01:10:31.441Z,70.78
2018-10-12T01:13:00.801Z,70.68
2018-10-12T01:15:30.063Z,70.48
2018-10-12T01:17:59.292Z,69.96
2018-10-12T01:20:28.744Z,70.29
2018-10-12T01:22:58.051Z,70.89
2018-10-12T01:25:27.138Z,71.47
2018-10-12T01:27:56.335Z,71.28
2018-10-12T01:30:25.588Z,71.73
2018-10-12T01:32:59.771Z,70.87
2018-10-12T01:35:29.068Z,70.56
2018-10-12T01:37:58.401Z,70.93
2018-10-12T01:40:27.607Z,70.89
2018-10-12T01:42:56.627Z,70.69
2018-10-12T01:45:25.584Z,70.33
2018-10-12T01:47:54.575Z,71.07
2018-10-12T01:50:23.878Z,71.04
2018-10-12T01:52:53.271Z,71.04
2018-10-12T01:55:22.431Z,71.59
2018-10-12T01:57:51.722Z,71.11
2018-10-12T02:00:21.046Z,70.53
2018-10-12T02:02:50.393Z,69.94
2018-10-12T02:05:19.299Z,70.78
2018-10-12T02:07:48.455Z,71.19
2018-10-12T02:10:17.696Z,72.04
2018-10-12T02:12:46.905Z,71.24
2018-10-12T02:15:16.234Z,71.67
2018-10-12T02:17:45.517Z,71.29
2018-10-12T02:20:14.539Z,72.01
2018-10-12T02:22:43.651Z,71.86
2018-10-12T02:25:13.060Z,72.04
2018-10-12T02:27:41.995Z,71.83
2018-10-12T02:30:11.431Z,71.95
2018-10-12T02:32:40.908Z,71.84
2018-10-12T02:35:10.368Z,72.16
2018-10-12T02:37:39.727Z,72.32
2018-10-12T02:40:09.111Z,71.08
2018-10-12T02:42:38.036Z,71.91
2018-10-12T02:45:07.345Z,72.13
2018-10-12T02:47:36.640Z,73.21
2018-10-12T02:50:06.295Z,72.58
2018-10-12T02:52:35.531Z,73.04
2018-10-12T02:55:04.899Z,73.02
2018-10-12T02:57:34.160Z,72.91
2018-10-12T03:00:03.696Z,72.21
2018-10-12T03:02:32.985Z,71.84
2018-10-12T03:05:02.182Z,71.65
2018-10-12T03:07:31.579Z,72.86
2018-10-12T03:10:00.654Z,72.63
2018-10-12T03:12:29.641Z,72.72
2018-10-12T03:14:58.925Z,72.88
2018-10-12T03:17:28.255Z,73.66
2018-10-12T03:19:57.455Z,73.02
2018-10-12T03:22:26.758Z,72.59
2018-10-12T03:24:55.943Z,72.37
2018-10-12T03:27:25.072Z,72.58
2018-10-12T03:29:54.073Z,72.24
2018-10-12T03:32:23.435Z,72.98
2018-10-12T03:34:53.062Z,73.15
2018-10-12T03:37:22.642Z,73.09
2018-10-12T03:39:51.508Z,73.68
2018-10-12T03:42:20.746Z,72.88
2018-10-12T03:44:49.990Z,72.75
2018-10-12T03:47:19.355Z,73.62
2018-10-12T03:49:48.599Z,73.74
2018-10-12T03:52:17.812Z,73.29
2018-10-12T03:54:47.009Z,73.30
2018-10-12T03:57:15.994Z,72.97
2018-10-12T03:59:45.327Z,73.22
2018-10-12T04:02:14.319Z,73.08
2018-10-12T04:04:43.575Z,74.03
2018-10-12T04:07:13.091Z,73.98
2018-10-12T04:09:42.423Z,74.31
2018-10-12T04:12:11.735Z,73.22
2018-10-12T04:14:40.986Z,73.13
2018-10-12T04:17:10.219Z,73.29
2018-10-12T04:19:39.519Z,73.41
2018-10-12T04:22:08.630Z,74.26
2018-10-12T04:24:37.564Z,74.84
2018-10-12T04:27:06.811Z,74.97
2018-10-12T04:29:36.311Z,74.19
2018-10-12T04:32:05.494Z,74.57
2018-10-12T04:34:34.808Z,74.08
2018-10-12T04:37:04.066Z,74.04
2018-10-12T04:39:45.600Z,74.08
2018-10-12T04:42:15.269Z,74.72
2018-10-12T04:44:44.359Z,73.72
2018-10-12T04:47:13.622Z,74.23
2018-10-12T04:49:42.947Z,75.41
2018-10-12T04:52:12.155Z,74.96
2018-10-12T04:54:41.351Z,74.71
2018-10-12T04:57:10.651Z,75.55
2018-10-12T04:59:39.990Z,76.16
2018-10-12T05:02:09.388Z,75.98
2018-10-12T05:04:38.465Z,75.30
2018-10-12T05:07:07.848Z,75.82
2018-10-12T05:09:36.991Z,76.32
2018-10-12T05:12:06.403Z,75.90
2018-10-12T05:14:35.880Z,75.95
2018-10-12T05:17:05.151Z,75.65
2018-10-12T05:19:34.443Z,75.56
2018-10-12T05:22:03.478Z,75.72
2018-10-12T05:24:32.727Z,75.39
2018-10-12T05:27:02.140Z,75.69
2018-10-12T05:29:31.124Z,75.90
2018-10-12T05:32:00.464Z,75.20
2018-10-12T05:34:29.724Z,75.33
2018-10-12T05:36:58.960Z,75.12
2018-10-12T05:39:28.057Z,75.29
2018-10-12T05:41:57.368Z,75.43
2018-10-12T05:44:26.447Z,75.58
2018-10-12T05:46:55.708Z,74.58
2018-10-12T05:49:35.694Z,74.47
2018-10-12T05:52:04.596Z,75.13
2018-10-12T05:54:33.951Z,74.72
2018-10-12T05:57:03.344Z,74.47
2018-10-12T05:59:32.698Z,74.85
2018-10-12T06:02:01.604Z,74.76
2018-10-12T06:04:30.975Z,74.79
2018-10-12T06:07:00.078Z,74.97
2018-10-12T06:09:29.373Z,74.23
2018-10-12T06:11:58.627Z,74.22
2018-10-12T06:14:27.724Z,73.32
2018-10-12T06:16:56.911Z,72.88
2018-10-12T06:19:26.211Z,73.36
2018-10-12T06:21:55.514Z,72.35
2018-10-12T06:24:24.440Z,72.27
2018-10-12T06:26:53.769Z,72.40
2018-10-12T06:29:22.895Z,72.02
2018-10-12T06:31:52.064Z,72.93
2018-10-12T06:34:21.160Z,72.13
2018-10-12T06:36:50.539Z,70.33
2018-10-12T06:39:19.847Z,70.04
2018-10-12T06:41:49.071Z,70.82
2018-10-12T06:44:18.207Z,71.00
2018-10-12T06:46:47.671Z,70.83
2018-10-12T06:49:17.007Z,69.90
2018-10-12T06:51:46.343Z,69.29
2018-10-12T06:54:15.543Z,69.20
2018-10-12T06:56:46.827Z,68.97
2018-10-12T06:59:16.250Z,68.66
2018-10-12T07:01:45.438Z,67.80
2018-10-12T07:04:14.884Z,65.32
2018-10-12T07:06:44.231Z,65.23
2018-10-12T07:09:13.771Z,64.65
2018-10-12T07:11:42.999Z,64.42
2018-10-12T07:14:12.455Z,64.10
2018-10-12T07:16:41.901Z,63.54
2018-10-12T07:19:11.304Z,61.79
2018-10-12T07:21:40.298Z,60.48
2018-10-12T07:24:09.498Z,58.65
2018-10-12T07:26:38.591Z,59.52
2018-10-12T07:29:07.897Z,59.05
2018-10-12T07:31:37.421Z,57.76
2018-10-12T07:34:06.384Z,56.73
2018-10-12T07:36:35.783Z,57.29
2018-10-12T07:39:06.563Z,58.64
2018-10-12T07:41:35.813Z,58.87
2018-10-12T07:44:04.906Z,57.99
2018-10-12T07:46:34.191Z,57.16
2018-10-12T07:49:03.353Z,57.76
2018-10-12T07:51:32.493Z,58.17
2018-10-12T07:54:01.775Z,56.67
2018-10-12T07:56:31.152Z,57.64
2018-10-12T07:59:00.547Z,56.29
2018-10-12T08:01:29.643Z,55.97
2018-10-12T08:03:58.836Z,54.79
2018-10-12T08:06:28.148Z,55.43
2018-10-12T08:08:57.323Z,55.18
2018-10-12T08:11:26.586Z,55.29
2018-10-12T08:13:55.720Z,56.33
2018-10-12T08:16:25.077Z,55.09
2018-10-12T08:18:54.482Z,55.14
2018-10-12T08:21:23.504Z,54.23
2018-10-12T08:23:52.915Z,53.90
2018-10-12T08:26:22.175Z,52.80
2018-10-12T08:28:51.156Z,51.04
2018-10-12T08:31:20.392Z,51.24
2018-10-12T08:33:49.882Z,50.42
2018-10-12T08:36:19.246Z,47.93
2018-10-12T08:38:48.623Z,46.68
2018-10-12T08:41:17.915Z,48.24
2018-10-12T08:43:47.113Z,48.95
2018-10-12T08:46:16.458Z,49.51
2018-10-12T08:48:45.840Z,50.14
2018-10-12T08:51:14.707Z,49.76
2018-10-12T08:53:44.060Z,48.44
2018-10-12T08:56:13.464Z,48.11
2018-10-12T08:58:42.884Z,47.10
2018-10-12T09:01:12.263Z,47.82
2018-10-12T09:03:41.392Z,47.37
2018-10-12T09:06:10.750Z,46.40
2018-10-12T09:08:40.266Z,45.88
2018-10-12T09:11:09.611Z,44.18
2018-10-12T09:13:38.775Z,45.50
2018-10-12T09:16:08.358Z,44.97
2018-10-12T09:18:37.520Z,44.51
2018-10-12T09:21:06.966Z,44.56
2018-10-12T09:23:36.306Z,45.79
2018-10-12T09:26:05.410Z,44.58
2018-10-12T09:28:34.604Z,43.62
2018-10-12T09:31:03.895Z,43.47
2018-10-12T09:33:32.947Z,43.64
2018-10-12T09:36:01.939Z,43.62
2018-10-12T09:38:31.243Z,42.82
2018-10-12T09:41:00.651Z,42.17
2018-10-12T09:43:29.839Z,41.87
2018-10-12T09:45:59.228Z,42.30
2018-10-12T09:48:28.632Z,42.31
2018-10-12T09:50:57.563Z,39.74
2018-10-12T09:53:26.926Z,40.52
2018-10-12T09:55:56.313Z,41.95
2018-10-12T09:58:25.588Z,40.41
2018-10-12T10:00:59.952Z,40.39
2018-10-12T10:03:34.152Z,40.82
2018-10-12T10:06:03.520Z,40.03
2018-10-12T10:08:32.869Z,40.04
2018-10-12T10:11:02.004Z,38.44
2018-10-12T10:13:31.244Z,36.78
2018-10-12T10:16:00.608Z,38.28
2018-10-12T10:18:29.855Z,37.60
2018-10-12T10:20:58.767Z,37.68
2018-10-12T10:23:27.991Z,35.69
2018-10-12T10:25:57.144Z,33.34
2018-10-12T10:28:26.519Z,33.08
2018-10-12T10:30:55.684Z,32.17
2018-10-12T10:33:25.023Z,32.78
2018-10-12T10:35:54.172Z,32.59
2018-10-12T10:38:23.284Z,31.49
2018-10-12T10:40:52.474Z,31.67
2018-10-12T10:43:21.671Z,29.20
2018-10-12T10:45:51.071Z,29.53
2018-10-12T10:48:20.364Z,29.77
2018-10-12T10:50:49.772Z,30.42
2018-10-12T10:53:18.875Z,30.53
2018-10-12T10:55:48.276Z,33.33
2018-10-12T10:58:17.471Z,32.80
2018-10-12T11:00:46.483Z,33.10
2018-10-12T11:03:15.611Z,34.74
2018-10-12T11:05:44.590Z,34.18
2018-10-12T11:08:13.566Z,34.68
2018-10-12T11:10:42.927Z,35.08
2018-10-12T11:13:11.979Z,36.04
2018-10-12T11:15:41.283Z,36.60
2018-10-12T11:18:10.269Z,36.89
2018-10-12T11:20:39.621Z,37.14
2018-10-12T11:23:08.964Z,36.63
2018-10-12T11:25:38.115Z,36.42
2018-10-12T11:28:07.280Z,37.29
2018-10-12T11:30:36.569Z,37.34
2018-10-12T11:33:06.027Z,38.90
2018-10-12T11:35:34.939Z,38.23
2018-10-12T11:38:04.192Z,38.88
2018-10-12T11:40:33.295Z,39.63
2018-10-12T11:43:13.360Z,39.61
2018-10-12T11:45:42.698Z,40.25
2018-10-12T11:48:11.846Z,40.35
2018-10-12T11:50:41.002Z,40.03
2018-10-12T11:53:10.338Z,39.67
2018-10-12T11:55:39.318Z,40.04
2018-10-12T11:58:08.877Z,40.17
2018-10-12T12:00:38.024Z,39.78
2018-10-12T12:03:07.289Z,41.42
2018-10-12T12:05:36.779Z,40.63
2018-10-12T12:08:06.192Z,39.86
2018-10-12T12:10:35.390Z,39.51
2018-10-12T12:13:04.372Z,39.15
2018-10-12T12:15:33.489Z,40.02
2018-10-12T12:18:02.867Z,39.26
2018-10-12T12:20:31.881Z,39.16
2018-10-12T12:23:01.068Z,38.36
2018-10-12T12:25:30.003Z,39.48
2018-10-12T12:27:59.239Z,39.39
2018-10-12T12:30:28.243Z,39.38
2018-10-12T12:32:57.496Z,39.77
2018-10-12T12:35:27.120Z,41.69
2018-10-12T12:37:56.079Z,39.90
2018-10-12T12:40:25.393Z,39.89
2018-10-12T12:42:54.551Z,40.31
2018-10-12T12:45:23.768Z,39.61
2018-10-12T12:47:52.789Z,39.93
2018-10-12T12:50:22.075Z,39.96
2018-10-12T12:52:51.392Z,40.17
2018-10-12T12:55:20.672Z,38.97
2018-10-12T12:57:49.822Z,38.67
2018-10-12T13:00:20.116Z,38.77
2018-10-12T13:02:49.303Z,38.62
2018-10-12T13:05:18.204Z,38.88
2018-10-12T13:07:47.464Z,38.68
2018-10-12T13:10:16.662Z,38.39
2018-10-12T13:12:45.860Z,37.38
2018-10-12T13:15:15.297Z,38.75
2018-10-12T13:17:44.195Z,38.63
2018-10-12T13:20:13.522Z,38.92
2018-10-12T13:22:42.771Z,40.67
2018-10-12T13:25:11.911Z,40.28
2018-10-12T13:27:41.407Z,39.07
2018-10-12T13:30:10.567Z,39.49
2018-10-12T13:32:40.120Z,39.82
2018-10-12T13:35:09.456Z,39.97
2018-10-12T13:37:38.435Z,39.51
2018-10-12T13:40:07.704Z,41.10
2018-10-12T13:42:37.046Z,40.96
2018-10-12T13:45:06.337Z,38.68
2018-10-12T13:47:35.288Z,39.27
2018-10-12T13:50:04.739Z,40.55
2018-10-12T13:52:33.983Z,39.77
2018-10-12T13:55:03.230Z,40.00
2018-10-12T13:57:32.702Z,39.46
2018-10-12T14:00:02.143Z,39.35
2018-10-12T14:02:31.195Z,40.37
2018-10-12T14:05:00.583Z,40.92
2018-10-12T14:07:29.739Z,40.44
2018-10-12T14:09:58.972Z,41.79
2018-10-12T14:12:28.403Z,41.51
2018-10-12T14:14:57.655Z,41.96
2018-10-12T14:17:26.783Z,41.66
2018-10-12T14:19:55.826Z,42.84
2018-10-12T14:22:25.140Z,43.27
2018-10-12T14:24:54.273Z,43.62
2018-10-12T14:27:23.492Z,42.57
2018-10-12T14:29:52.858Z,43.53
2018-10-12T14:32:22.182Z,44.45
2018-10-12T14:34:51.408Z,43.94
2018-10-12T14:37:20.404Z,46.04
2018-10-12T14:39:49.608Z,44.73
2018-10-12T14:42:19.005Z,45.58
2018-10-12T14:44:48.332Z,46.73
2018-10-12T14:47:17.595Z,46.79
2018-10-12T14:49:46.912Z,47.39
2018-10-12T14:52:16.099Z,47.93
2018-10-12T14:54:45.126Z,47.89
2018-10-12T14:57:20.791Z,48.90
2018-10-12T14:59:51.060Z,48.08
2018-10-12T15:02:20.722Z,47.84
2018-10-12T15:04:49.865Z,48.57
2018-10-12T15:07:18.973Z,48.10
2018-10-12T15:09:48.313Z,48.88
2018-10-12T15:12:17.719Z,48.02
2018-10-12T15:14:57.585Z,46.59
2018-10-12T15:17:26.860Z,47.49
2018-10-12T15:19:56.096Z,47.41
2018-10-12T15:22:25.503Z,46.21
2018-10-12T15:24:54.746Z,46.06
2018-10-12T15:27:24.058Z,47.05
2018-10-12T15:29:53.127Z,46.39
2018-10-12T15:32:22.148Z,46.90
2018-10-12T15:34:51.316Z,47.08
2018-10-12T15:37:20.506Z,48.85
2018-10-12T15:39:49.532Z,48.83
2018-10-12T15:42:18.880Z,49.57
2018-10-12T15:44:48.254Z,49.98
2018-10-12T15:47:17.280Z,49.54
2018-10-12T15:49:46.267Z,49.02
2018-10-12T15:52:15.378Z,49.48
2018-10-12T15:54:44.802Z,49.44
2018-10-12T15:57:19.067Z,49.51
2018-10-12T15:59:49.667Z,50.51
2018-10-12T16:02:18.621Z,50.43
2018-10-12T16:04:47.916Z,50.21
2018-10-12T16:07:17.967Z,50.45
2018-10-12T16:09:48.743Z,50.41
2018-10-12T16:12:18.715Z,50.60
2018-10-12T16:14:48.056Z,51.17
2018-10-12T16:17:17.243Z,51.01
2018-10-12T16:19:47.494Z,50.15
2018-10-12T16:22:16.617Z,50.37
2018-10-12T16:25:58.621Z,51.12
2018-10-12T16:28:27.911Z,51.52
2018-10-12T16:30:57.588Z,51.82
2018-10-12T16:33:26.884Z,51.98
2018-10-12T16:35:57.247Z,51.18
2018-10-12T16:38:26.557Z,51.67
2018-10-12T16:40:55.907Z,51.52
2018-10-12T16:43:25.096Z,51.21
2018-10-12T16:45:54.239Z,50.27
2018-10-12T16:48:23.531Z,49.30
2018-10-12T16:50:52.839Z,49.58
2018-10-12T16:53:21.902Z,49.36
2018-10-12T16:55:51.247Z,48.70
2018-10-12T16:58:20.690Z,49.65
2018-10-12T17:00:49.764Z,49.16
2018-10-12T17:03:18.940Z,48.87
2018-10-12T17:05:48.082Z,48.20
2018-10-12T17:08:17.774Z,48.83
2018-10-12T17:10:48.260Z,49.18
2018-10-12T17:13:17.894Z,48.35
2018-10-12T17:15:47.455Z,48.09
2018-10-12T17:18:16.503Z,49.23
2018-10-12T17:20:45.718Z,48.35
2018-10-12T17:23:14.980Z,49.45
2018-10-12T17:25:44.374Z,48.88
2018-10-12T17:28:13.624Z,49.61
2018-10-12T17:30:42.591Z,49.12
2018-10-12T17:33:12.120Z,50.06
2018-10-12T17:35:41.515Z,50.14
2018-10-12T17:38:10.436Z,50.40
2018-10-12T17:40:39.391Z,50.37
2018-10-12T17:43:09.219Z,50.67
2018-10-12T17:45:38.516Z,50.30
2018-10-12T17:48:07.919Z,50.15
2018-10-12T17:50:37.252Z,51.00
2018-10-12T17:53:06.513Z,50.48
2018-10-12T17:55:36.675Z,50.91
2018-10-12T17:58:05.765Z,50.56
2018-10-12T18:00:36.135Z,51.38
2018-10-12T18:03:05.299Z,51.64
2018-10-12T18:05:34.533Z,51.12
2018-10-12T18:08:03.767Z,50.84
2018-10-12T18:10:32.990Z,50.90
2018-10-12T18:13:02.444Z,51.48
2018-10-12T18:15:31.735Z,51.65
2018-10-12T18:18:01.079Z,51.20
2018-10-12T18:20:30.196Z,50.24
2018-10-12T18:22:59.632Z,50.60
2018-10-12T18:25:28.732Z,49.77
2018-10-12T18:27:57.948Z,50.93
2018-10-12T18:30:27.236Z,51.03
2018-10-12T18:32:56.581Z,50.30
2018-10-12T18:35:25.927Z,50.78
2018-10-12T18:37:54.992Z,50.69
2018-10-12T18:40:23.949Z,50.81
2018-10-12T18:42:53.266Z,51.24
2018-10-12T18:45:22.647Z,51.03
2018-10-12T18:47:51.822Z,51.17
2018-10-12T18:50:21.274Z,51.73
2018-10-12T18:52:50.623Z,52.44
2018-10-12T18:55:19.743Z,52.70
2018-10-12T18:57:49.162Z,51.88
2018-10-12T19:00:18.368Z,52.26
2018-10-12T19:02:47.619Z,53.16
2018-10-12T19:05:17.043Z,53.98
2018-10-12T19:07:46.080Z,56.36
2018-10-12T19:10:15.399Z,58.59
2018-10-12T19:12:44.521Z,61.34
2018-10-12T19:15:13.787Z,63.67
2018-10-12T19:17:43.055Z,66.34
2018-10-12T19:20:12.292Z,66.73
2018-10-12T19:22:41.681Z,67.66
2018-10-12T19:25:10.853Z,68.50
2018-10-12T19:27:40.108Z,68.46
2018-10-12T19:30:09.114Z,68.71
2018-10-12T19:32:38.360Z,68.76
2018-10-12T19:35:07.920Z,69.03
2018-10-12T19:37:36.873Z,69.75
2018-10-12T19:40:06.140Z,70.28
2018-10-12T19:42:35.336Z,71.32
2018-10-12T19:45:04.381Z,70.70
2018-10-12T19:47:33.326Z,70.20
2018-10-12T19:50:02.491Z,69.86
2018-10-12T19:52:31.504Z,68.81
2018-10-12T19:55:00.759Z,68.57
2018-10-12T19:57:30.107Z,68.05
2018-10-12T19:59:59.331Z,67.12
2018-10-12T20:02:28.692Z,66.91
2018-10-12T20:04:57.741Z,66.87
2018-10-12T20:07:26.891Z,66.61
2018-10-12T20:09:56.333Z,65.99
2018-10-12T20:12:25.852Z,65.42
2018-10-12T20:14:55.152Z,65.99
2018-10-12T20:17:24.541Z,66.95
2018-10-12T20:19:53.583Z,68.25
2018-10-12T20:22:22.947Z,69.37
2018-10-12T20:24:52.084Z,71.01
2018-10-12T20:27:21.459Z,70.58
2018-10-12T20:29:50.616Z,70.45
2018-10-12T20:32:19.824Z,69.87
2018-10-12T20:34:48.963Z,71.57
2018-10-12T20:37:18.269Z,71.53
2018-10-12T20:39:47.223Z,72.01
2018-10-12T20:42:16.640Z,71.71
2018-10-12T20:44:45.732Z,71.30
2018-10-12T20:47:15.051Z,70.40
2018-10-12T20:49:44.424Z,69.83
2018-10-12T20:52:13.255Z,70.26
2018-10-12T20:54:42.436Z,68.94
2018-10-12T20:57:11.970Z,67.87
2018-10-12T20:59:40.822Z,69.46
2018-10-12T21:02:09.782Z,67.99
2018-10-12T21:04:39.175Z,68.84
2018-10-12T21:07:08.412Z,67.82
2018-10-12T21:09:37.667Z,67.89
2018-10-12T21:12:06.928Z,67.80
2018-10-12T21:14:36.128Z,67.44
2018-10-12T21:17:05.036Z,66.74
2018-10-12T21:19:34.091Z,66.31
2018-10-12T21:22:03.447Z,67.04
2018-10-12T21:24:32.919Z,67.03
2018-10-12T21:27:02.331Z,66.96
2018-10-12T21:29:31.559Z,65.93
2018-10-12T21:32:00.952Z,66.68
2018-10-12T21:34:30.958Z,67.81
2018-10-12T21:37:00.425Z,68.83
2018-10-12T21:39:29.658Z,70.25
2018-10-12T21:41:59.000Z,69.28
2018-10-12T21:44:28.070Z,68.10
2018-10-12T21:46:57.200Z,68.52
2018-10-12T21:49:26.455Z,69.20
2018-10-12T21:51:55.704Z,68.90
2018-10-12T21:54:24.948Z,68.86
2018-10-12T21:56:54.213Z,69.82
2018-10-12T21:59:23.403Z,70.15
2018-10-12T22:01:52.702Z,70.84
2018-10-12T22:04:22.207Z,71.35
2018-10-12T22:06:51.450Z,72.41
2018-10-12T22:09:20.908Z,73.02
2018-10-12T22:11:50.251Z,72.62
2018-10-12T22:14:19.604Z,72.84
2018-10-12T22:16:48.544Z,73.11
2018-10-12T22:19:17.566Z,72.86
2018-10-12T22:21:46.741Z,73.12
2018-10-12T22:24:16.148Z,72.02
2018-10-12T22:26:45.285Z,72.22
2018-10-12T22:29:14.591Z,72.87
2018-10-12T22:31:43.975Z,73.00
2018-10-12T22:34:13.389Z,73.36
2018-10-12T22:36:42.631Z,72.65
2018-10-12T22:39:12.283Z,72.59
2018-10-12T22:41:41.743Z,72.52
2018-10-12T22:44:10.869Z,72.62
2018-10-12T22:46:39.922Z,73.12
2018-10-12T22:49:09.067Z,74.01
2018-10-12T22:51:38.203Z,74.27
2018-10-12T22:54:07.565Z,74.58
2018-10-12T22:56:36.527Z,74.59
2018-10-12T22:59:05.692Z,74.84
2018-10-12T23:01:34.906Z,75.57
2018-10-12T23:04:03.931Z,75.05
2018-10-12T23:06:33.196Z,75.27
2018-10-12T23:09:02.561Z,74.29
2018-10-12T23:11:31.803Z,73.50
2018-10-12T23:14:00.951Z,73.82
2018-10-12T23:16:30.336Z,73.96
2018-10-12T23:18:59.644Z,74.33
2018-10-12T23:21:29.105Z,73.60
2018-10-12T23:23:58.548Z,73.48
2018-10-12T23:26:27.795Z,73.31
2018-10-12T23:28:57.139Z,73.86
2018-10-12T23:31:26.141Z,72.86
2018-10-12T23:34:04.790Z,72.51
2018-10-12T23:36:33.872Z,72.12
2018-10-12T23:39:03.203Z,72.06
2018-10-12T23:41:32.295Z,73.04
2018-10-12T23:44:01.600Z,73.26
2018-10-12T23:46:30.900Z,73.47
2018-10-12T23:48:59.891Z,73.00
2018-10-12T23:51:29.235Z,72.40
2018-10-12T23:53:58.336Z,72.93
2018-10-12T23:56:27.593Z,73.38
2018-10-12T23:58:56.632Z,73.61
